sensor_id;sensor_type;location;lat;lon;timestamp;P1;durP1;ratioP1;P2;durP2;ratioP2
18931;SDS011;9598;50.954;3.112;2024-02-15T00:02:15;9.30;;;4.93;;
18931;SDS011;9598;50.954;3.112;2024-02-15T00:07:18;9.32;;;4.32;;
18931;SDS011;9598;50.954;3.112;2024-02-15T00:12:23;9.35;;;4.50;;
18931;SDS011;9598;50.954;3.112;2024-02-15T00:17:27;8.38;;;4.32;;
18931;SDS011;9598;50.954;3.112;2024-02-15T00:22:30;8.20;;;4.70;;
18931;SDS011;9598;50.954;3.112;2024-02-15T00:27:35;9.75;;;4.57;;
18931;SDS011;9598;50.954;3.112;2024-02-15T00:32:37;9.52;;;4.95;;
18931;SDS011;9598;50.954;3.112;2024-02-15T00:37:40;7.88;;;4.38;;
18931;SDS011;9598;50.954;3.112;2024-02-15T00:42:43;6.38;;;4.28;;
18931;SDS011;9598;50.954;3.112;2024-02-15T00:47:45;10.98;;;5.32;;
18931;SDS011;9598;50.954;3.112;2024-02-15T00:52:48;7.97;;;4.55;;
18931;SDS011;9598;50.954;3.112;2024-02-15T00:57:52;11.77;;;4.90;;
18931;SDS011;9598;50.954;3.112;2024-02-15T01:02:54;9.63;;;4.28;;
18931;SDS011;9598;50.954;3.112;2024-02-15T01:07:56;9.48;;;4.65;;
18931;SDS011;9598;50.954;3.112;2024-02-15T01:13:00;6.80;;;3.85;;
18931;SDS011;9598;50.954;3.112;2024-02-15T01:18:03;9.18;;;3.97;;
18931;SDS011;9598;50.954;3.112;2024-02-15T01:23:05;8.88;;;4.50;;
18931;SDS011;9598;50.954;3.112;2024-02-15T01:28:09;11.13;;;5.03;;
18931;SDS011;9598;50.954;3.112;2024-02-15T01:33:11;8.82;;;4.38;;
18931;SDS011;9598;50.954;3.112;2024-02-15T01:38:13;7.30;;;4.25;;
18931;SDS011;9598;50.954;3.112;2024-02-15T01:43:17;8.10;;;4.72;;
18931;SDS011;9598;50.954;3.112;2024-02-15T01:48:19;13.25;;;4.78;;
18931;SDS011;9598;50.954;3.112;2024-02-15T01:53:23;8.07;;;4.22;;
18931;SDS011;9598;50.954;3.112;2024-02-15T01:58:27;9.23;;;4.40;;
18931;SDS011;9598;50.954;3.112;2024-02-15T02:03:32;7.03;;;4.35;;
18931;SDS011;9598;50.954;3.112;2024-02-15T02:08:35;8.50;;;4.22;;
18931;SDS011;9598;50.954;3.112;2024-02-15T02:13:38;7.90;;;4.25;;
18931;SDS011;9598;50.954;3.112;2024-02-15T02:18:41;9.68;;;5.05;;
18931;SDS011;9598;50.954;3.112;2024-02-15T02:23:43;8.38;;;4.63;;
18931;SDS011;9598;50.954;3.112;2024-02-15T02:28:51;9.38;;;4.82;;
18931;SDS011;9598;50.954;3.112;2024-02-15T02:33:55;8.85;;;4.25;;
18931;SDS011;9598;50.954;3.112;2024-02-15T02:38:58;8.23;;;4.82;;
18931;SDS011;9598;50.954;3.112;2024-02-15T02:44:03;8.10;;;3.95;;
18931;SDS011;9598;50.954;3.112;2024-02-15T02:49:05;11.25;;;4.68;;
18931;SDS011;9598;50.954;3.112;2024-02-15T02:54:07;8.60;;;5.15;;
18931;SDS011;9598;50.954;3.112;2024-02-15T02:59:11;7.57;;;4.55;;
18931;SDS011;9598;50.954;3.112;2024-02-15T03:04:14;11.20;;;5.20;;
18931;SDS011;9598;50.954;3.112;2024-02-15T03:09:17;8.55;;;4.93;;
18931;SDS011;9598;50.954;3.112;2024-02-15T03:14:23;8.27;;;4.50;;
18931;SDS011;9598;50.954;3.112;2024-02-15T03:19:25;10.18;;;5.30;;
18931;SDS011;9598;50.954;3.112;2024-02-15T03:24:28;10.30;;;4.72;;
18931;SDS011;9598;50.954;3.112;2024-02-15T03:29:32;8.07;;;4.60;;
18931;SDS011;9598;50.954;3.112;2024-02-15T03:34:36;7.57;;;4.63;;
18931;SDS011;9598;50.954;3.112;2024-02-15T03:39:39;8.05;;;4.97;;
18931;SDS011;9598;50.954;3.112;2024-02-15T03:44:44;8.07;;;4.75;;
18931;SDS011;9598;50.954;3.112;2024-02-15T03:49:48;5.55;;;4.47;;
18931;SDS011;9598;50.954;3.112;2024-02-15T03:54:50;9.75;;;4.57;;
18931;SDS011;9598;50.954;3.112;2024-02-15T03:59:55;7.53;;;4.38;;
18931;SDS011;9598;50.954;3.112;2024-02-15T04:04:59;6.65;;;4.35;;
18931;SDS011;9598;50.954;3.112;2024-02-15T04:10:01;9.27;;;3.95;;
18931;SDS011;9598;50.954;3.112;2024-02-15T04:15:06;10.85;;;4.60;;
18931;SDS011;9598;50.954;3.112;2024-02-15T04:20:12;6.40;;;4.80;;
18931;SDS011;9598;50.954;3.112;2024-02-15T04:25:16;8.27;;;4.05;;
18931;SDS011;9598;50.954;3.112;2024-02-15T04:30:21;7.70;;;4.28;;
18931;SDS011;9598;50.954;3.112;2024-02-15T04:35:25;5.45;;;3.85;;
18931;SDS011;9598;50.954;3.112;2024-02-15T04:40:28;8.52;;;4.32;;
18931;SDS011;9598;50.954;3.112;2024-02-15T04:45:32;6.60;;;4.15;;
18931;SDS011;9598;50.954;3.112;2024-02-15T04:50:34;4.60;;;4.10;;
18931;SDS011;9598;50.954;3.112;2024-02-15T04:55:36;5.50;;;4.00;;
18931;SDS011;9598;50.954;3.112;2024-02-15T05:00:40;8.80;;;4.82;;
18931;SDS011;9598;50.954;3.112;2024-02-15T05:05:42;7.60;;;3.80;;
18931;SDS011;9598;50.954;3.112;2024-02-15T05:10:44;7.88;;;4.90;;
18931;SDS011;9598;50.954;3.112;2024-02-15T05:15:49;6.10;;;4.43;;
18931;SDS011;9598;50.954;3.112;2024-02-15T05:20:51;8.43;;;4.68;;
18931;SDS011;9598;50.954;3.112;2024-02-15T05:25:53;10.98;;;4.95;;
18931;SDS011;9598;50.954;3.112;2024-02-15T05:31:11;8.93;;;5.78;;
18931;SDS011;9598;50.954;3.112;2024-02-15T05:36:15;9.40;;;6.60;;
18931;SDS011;9598;50.954;3.112;2024-02-15T05:41:20;8.40;;;6.78;;
18931;SDS011;9598;50.954;3.112;2024-02-15T05:46:24;11.45;;;8.18;;
18931;SDS011;9598;50.954;3.112;2024-02-15T05:51:28;9.15;;;6.75;;
18931;SDS011;9598;50.954;3.112;2024-02-15T05:56:31;12.65;;;7.60;;
18931;SDS011;9598;50.954;3.112;2024-02-15T06:01:35;10.23;;;7.53;;
18931;SDS011;9598;50.954;3.112;2024-02-15T06:06:37;10.70;;;7.32;;
18931;SDS011;9598;50.954;3.112;2024-02-15T06:11:40;11.85;;;7.95;;
18931;SDS011;9598;50.954;3.112;2024-02-15T06:16:46;13.10;;;8.43;;
18931;SDS011;9598;50.954;3.112;2024-02-15T06:21:48;11.43;;;7.32;;
18931;SDS011;9598;50.954;3.112;2024-02-15T06:26:51;11.25;;;7.93;;
18931;SDS011;9598;50.954;3.112;2024-02-15T06:32:01;11.80;;;8.05;;
18931;SDS011;9598;50.954;3.112;2024-02-15T06:37:36;12.27;;;8.32;;
18931;SDS011;9598;50.954;3.112;2024-02-15T06:42:56;12.82;;;7.95;;
18931;SDS011;9598;50.954;3.112;2024-02-15T06:48:00;11.05;;;7.97;;
18931;SDS011;9598;50.954;3.112;2024-02-15T06:53:03;9.85;;;7.53;;
18931;SDS011;9598;50.954;3.112;2024-02-15T06:58:05;10.50;;;8.23;;
18931;SDS011;9598;50.954;3.112;2024-02-15T07:03:08;10.38;;;8.13;;
18931;SDS011;9598;50.954;3.112;2024-02-15T07:08:11;10.57;;;7.57;;
18931;SDS011;9598;50.954;3.112;2024-02-15T07:13:14;7.90;;;7.10;;
18931;SDS011;9598;50.954;3.112;2024-02-15T07:18:18;10.93;;;8.43;;
18931;SDS011;9598;50.954;3.112;2024-02-15T07:23:22;13.40;;;8.00;;
18931;SDS011;9598;50.954;3.112;2024-02-15T07:28:25;11.77;;;8.05;;
18931;SDS011;9598;50.954;3.112;2024-02-15T07:33:29;10.45;;;8.07;;
18931;SDS011;9598;50.954;3.112;2024-02-15T07:38:31;12.23;;;7.97;;
18931;SDS011;9598;50.954;3.112;2024-02-15T07:43:34;10.82;;;8.10;;
18931;SDS011;9598;50.954;3.112;2024-02-15T07:48:38;10.60;;;7.32;;
18931;SDS011;9598;50.954;3.112;2024-02-15T07:53:46;11.90;;;7.53;;
18931;SDS011;9598;50.954;3.112;2024-02-15T07:58:48;12.35;;;7.97;;
18931;SDS011;9598;50.954;3.112;2024-02-15T08:03:53;8.98;;;6.70;;
18931;SDS011;9598;50.954;3.112;2024-02-15T08:08:56;14.40;;;8.23;;
18931;SDS011;9598;50.954;3.112;2024-02-15T08:13:58;9.02;;;6.50;;
18931;SDS011;9598;50.954;3.112;2024-02-15T08:19:02;9.35;;;5.78;;
18931;SDS011;9598;50.954;3.112;2024-02-15T08:24:05;9.50;;;6.22;;
18931;SDS011;9598;50.954;3.112;2024-02-15T08:29:09;7.30;;;5.63;;
18931;SDS011;9598;50.954;3.112;2024-02-15T08:34:16;8.18;;;6.72;;
18931;SDS011;9598;50.954;3.112;2024-02-15T08:39:20;6.13;;;5.53;;
18931;SDS011;9598;50.954;3.112;2024-02-15T08:44:22;9.70;;;6.38;;
18931;SDS011;9598;50.954;3.112;2024-02-15T08:49:26;9.02;;;6.30;;
18931;SDS011;9598;50.954;3.112;2024-02-15T08:54:31;7.78;;;5.57;;
18931;SDS011;9598;50.954;3.112;2024-02-15T08:59:33;8.77;;;5.43;;
18931;SDS011;9598;50.954;3.112;2024-02-15T09:04:36;6.18;;;5.55;;
18931;SDS011;9598;50.954;3.112;2024-02-15T09:09:38;7.75;;;5.20;;
18931;SDS011;9598;50.954;3.112;2024-02-15T09:14:41;11.13;;;5.40;;
18931;SDS011;9598;50.954;3.112;2024-02-15T09:19:46;5.57;;;5.07;;
18931;SDS011;9598;50.954;3.112;2024-02-15T09:24:49;6.60;;;4.63;;
18931;SDS011;9598;50.954;3.112;2024-02-15T09:29:52;5.18;;;4.50;;
18931;SDS011;9598;50.954;3.112;2024-02-15T09:34:57;9.68;;;5.05;;
18931;SDS011;9598;50.954;3.112;2024-02-15T09:39:59;6.72;;;4.53;;
18931;SDS011;9598;50.954;3.112;2024-02-15T09:45:07;5.70;;;4.88;;
18931;SDS011;9598;50.954;3.112;2024-02-15T09:50:12;5.90;;;4.22;;
18931;SDS011;9598;50.954;3.112;2024-02-15T09:55:16;6.72;;;4.13;;
18931;SDS011;9598;50.954;3.112;2024-02-15T10:00:19;5.75;;;3.67;;
18931;SDS011;9598;50.954;3.112;2024-02-15T10:05:23;6.35;;;4.05;;
18931;SDS011;9598;50.954;3.112;2024-02-15T10:10:25;5.70;;;4.05;;
18931;SDS011;9598;50.954;3.112;2024-02-15T10:15:29;9.43;;;4.20;;
18931;SDS011;9598;50.954;3.112;2024-02-15T10:20:34;5.60;;;3.40;;
18931;SDS011;9598;50.954;3.112;2024-02-15T10:25:37;8.18;;;4.15;;
18931;SDS011;9598;50.954;3.112;2024-02-15T10:30:41;5.88;;;3.17;;
18931;SDS011;9598;50.954;3.112;2024-02-15T10:35:47;5.60;;;3.47;;
18931;SDS011;9598;50.954;3.112;2024-02-15T10:40:49;4.90;;;2.75;;
18931;SDS011;9598;50.954;3.112;2024-02-15T10:45:51;5.35;;;2.90;;
18931;SDS011;9598;50.954;3.112;2024-02-15T10:50:57;5.07;;;3.38;;
18931;SDS011;9598;50.954;3.112;2024-02-15T10:56:05;5.20;;;2.95;;
18931;SDS011;9598;50.954;3.112;2024-02-15T11:01:17;4.10;;;3.28;;
18931;SDS011;9598;50.954;3.112;2024-02-15T11:06:24;6.82;;;3.40;;
18931;SDS011;9598;50.954;3.112;2024-02-15T11:11:29;4.25;;;3.20;;
18931;SDS011;9598;50.954;3.112;2024-02-15T11:16:41;5.95;;;3.40;;
18931;SDS011;9598;50.954;3.112;2024-02-15T11:21:54;3.30;;;2.90;;
18931;SDS011;9598;50.954;3.112;2024-02-15T11:26:58;4.45;;;3.15;;
18931;SDS011;9598;50.954;3.112;2024-02-15T11:32:03;7.18;;;3.45;;
18931;SDS011;9598;50.954;3.112;2024-02-15T11:37:07;5.47;;;3.40;;
18931;SDS011;9598;50.954;3.112;2024-02-15T11:42:24;5.43;;;3.25;;
18931;SDS011;9598;50.954;3.112;2024-02-15T11:47:29;6.35;;;3.58;;
18931;SDS011;9598;50.954;3.112;2024-02-15T11:52:34;5.47;;;3.20;;
18931;SDS011;9598;50.954;3.112;2024-02-15T11:57:38;5.53;;;3.22;;
18931;SDS011;9598;50.954;3.112;2024-02-15T12:02:51;3.38;;;2.63;;
18931;SDS011;9598;50.954;3.112;2024-02-15T12:08:11;6.57;;;3.08;;
18931;SDS011;9598;50.954;3.112;2024-02-15T12:13:31;4.93;;;2.75;;
18931;SDS011;9598;50.954;3.112;2024-02-15T12:18:51;4.53;;;2.30;;
18931;SDS011;9598;50.954;3.112;2024-02-15T12:23:55;5.60;;;2.60;;
18931;SDS011;9598;50.954;3.112;2024-02-15T12:28:58;4.68;;;2.67;;
18931;SDS011;9598;50.954;3.112;2024-02-15T12:34:02;4.30;;;2.42;;
18931;SDS011;9598;50.954;3.112;2024-02-15T12:39:08;4.43;;;2.42;;
18931;SDS011;9598;50.954;3.112;2024-02-15T12:44:15;4.03;;;2.10;;
18931;SDS011;9598;50.954;3.112;2024-02-15T12:49:27;2.97;;;2.60;;
18931;SDS011;9598;50.954;3.112;2024-02-15T12:54:32;5.05;;;2.65;;
18931;SDS011;9598;50.954;3.112;2024-02-15T12:59:35;4.35;;;2.42;;
18931;SDS011;9598;50.954;3.112;2024-02-15T13:04:37;4.03;;;2.55;;
18931;SDS011;9598;50.954;3.112;2024-02-15T13:09:43;3.60;;;2.38;;
18931;SDS011;9598;50.954;3.112;2024-02-15T13:14:46;2.75;;;2.40;;
18931;SDS011;9598;50.954;3.112;2024-02-15T13:19:50;13.20;;;11.07;;
18931;SDS011;9598;50.954;3.112;2024-02-15T13:24:53;3.47;;;2.75;;
18931;SDS011;9598;50.954;3.112;2024-02-15T13:29:56;4.05;;;2.40;;
18931;SDS011;9598;50.954;3.112;2024-02-15T13:34:58;4.90;;;2.40;;
18931;SDS011;9598;50.954;3.112;2024-02-15T13:40:09;3.88;;;2.15;;
18931;SDS011;9598;50.954;3.112;2024-02-15T13:45:15;4.53;;;2.45;;
18931;SDS011;9598;50.954;3.112;2024-02-15T13:50:18;4.45;;;2.72;;
18931;SDS011;9598;50.954;3.112;2024-02-15T13:55:22;3.88;;;2.67;;
18931;SDS011;9598;50.954;3.112;2024-02-15T14:00:25;7.85;;;2.13;;
18931;SDS011;9598;50.954;3.112;2024-02-15T14:05:31;5.15;;;2.10;;
18931;SDS011;9598;50.954;3.112;2024-02-15T14:10:35;5.35;;;2.38;;
18931;SDS011;9598;50.954;3.112;2024-02-15T14:15:37;3.33;;;1.90;;
18931;SDS011;9598;50.954;3.112;2024-02-15T14:20:40;2.70;;;1.75;;
18931;SDS011;9598;50.954;3.112;2024-02-15T14:25:44;3.60;;;2.10;;
18931;SDS011;9598;50.954;3.112;2024-02-15T14:30:47;2.38;;;1.90;;
18931;SDS011;9598;50.954;3.112;2024-02-15T14:36:07;2.53;;;1.90;;
18931;SDS011;9598;50.954;3.112;2024-02-15T14:41:11;3.47;;;1.83;;
18931;SDS011;9598;50.954;3.112;2024-02-15T14:46:13;3.05;;;2.10;;
18931;SDS011;9598;50.954;3.112;2024-02-15T14:51:15;2.75;;;1.90;;
18931;SDS011;9598;50.954;3.112;2024-02-15T14:56:20;3.67;;;2.35;;
18931;SDS011;9598;50.954;3.112;2024-02-15T15:01:22;4.43;;;1.90;;
18931;SDS011;9598;50.954;3.112;2024-02-15T15:06:26;3.42;;;2.35;;
18931;SDS011;9598;50.954;3.112;2024-02-15T15:11:46;2.45;;;2.00;;
18931;SDS011;9598;50.954;3.112;2024-02-15T15:17:07;3.53;;;2.63;;
18931;SDS011;9598;50.954;3.112;2024-02-15T15:22:10;5.72;;;2.60;;
18931;SDS011;9598;50.954;3.112;2024-02-15T15:27:13;3.05;;;2.63;;
18931;SDS011;9598;50.954;3.112;2024-02-15T15:32:15;4.50;;;2.40;;
18931;SDS011;9598;50.954;3.112;2024-02-15T15:37:18;4.80;;;3.05;;
18931;SDS011;9598;50.954;3.112;2024-02-15T15:42:24;6.40;;;2.35;;
18931;SDS011;9598;50.954;3.112;2024-02-15T15:47:27;4.63;;;2.90;;
18931;SDS011;9598;50.954;3.112;2024-02-15T15:52:31;4.68;;;2.70;;
18931;SDS011;9598;50.954;3.112;2024-02-15T15:57:35;3.30;;;2.25;;
18931;SDS011;9598;50.954;3.112;2024-02-15T16:02:38;4.18;;;2.85;;
18931;SDS011;9598;50.954;3.112;2024-02-15T16:07:41;2.90;;;2.58;;
18931;SDS011;9598;50.954;3.112;2024-02-15T16:12:45;3.75;;;2.05;;
18931;SDS011;9598;50.954;3.112;2024-02-15T16:17:47;3.88;;;2.42;;
18931;SDS011;9598;50.954;3.112;2024-02-15T16:22:49;3.60;;;2.75;;
18931;SDS011;9598;50.954;3.112;2024-02-15T16:27:53;3.72;;;2.70;;
18931;SDS011;9598;50.954;3.112;2024-02-15T16:32:56;4.40;;;2.53;;
18931;SDS011;9598;50.954;3.112;2024-02-15T16:37:59;4.30;;;2.88;;
18931;SDS011;9598;50.954;3.112;2024-02-15T16:43:02;4.00;;;2.53;;
18931;SDS011;9598;50.954;3.112;2024-02-15T16:48:05;5.35;;;2.85;;
18931;SDS011;9598;50.954;3.112;2024-02-15T16:53:07;4.18;;;2.58;;
18931;SDS011;9598;50.954;3.112;2024-02-15T16:58:11;4.20;;;3.50;;
18931;SDS011;9598;50.954;3.112;2024-02-15T17:03:14;4.07;;;3.50;;
18931;SDS011;9598;50.954;3.112;2024-02-15T17:08:16;7.78;;;4.38;;
18931;SDS011;9598;50.954;3.112;2024-02-15T17:13:22;5.55;;;4.10;;
18931;SDS011;9598;50.954;3.112;2024-02-15T17:18:25;6.72;;;4.47;;
18931;SDS011;9598;50.954;3.112;2024-02-15T17:23:27;6.18;;;4.20;;
18931;SDS011;9598;50.954;3.112;2024-02-15T17:28:30;4.43;;;4.03;;
18931;SDS011;9598;50.954;3.112;2024-02-15T17:33:32;5.15;;;3.97;;
18931;SDS011;9598;50.954;3.112;2024-02-15T17:38:36;4.45;;;4.03;;
18931;SDS011;9598;50.954;3.112;2024-02-15T17:43:40;3.88;;;3.47;;
18931;SDS011;9598;50.954;3.112;2024-02-15T17:48:42;5.05;;;4.10;;
18931;SDS011;9598;50.954;3.112;2024-02-15T17:53:44;4.45;;;3.75;;
18931;SDS011;9598;50.954;3.112;2024-02-15T17:58:48;5.32;;;4.07;;
18931;SDS011;9598;50.954;3.112;2024-02-15T18:03:51;4.55;;;4.15;;
18931;SDS011;9598;50.954;3.112;2024-02-15T18:08:55;5.15;;;4.47;;
18931;SDS011;9598;50.954;3.112;2024-02-15T18:13:58;4.97;;;4.47;;
18931;SDS011;9598;50.954;3.112;2024-02-15T18:19:01;5.25;;;4.47;;
18931;SDS011;9598;50.954;3.112;2024-02-15T18:24:04;5.45;;;4.85;;
18931;SDS011;9598;50.954;3.112;2024-02-15T18:29:09;5.10;;;4.60;;
18931;SDS011;9598;50.954;3.112;2024-02-15T18:34:13;6.75;;;5.10;;
18931;SDS011;9598;50.954;3.112;2024-02-15T18:39:16;9.75;;;7.65;;
18931;SDS011;9598;50.954;3.112;2024-02-15T18:44:19;7.93;;;5.35;;
18931;SDS011;9598;50.954;3.112;2024-02-15T18:49:24;5.93;;;5.22;;
18931;SDS011;9598;50.954;3.112;2024-02-15T18:54:26;8.30;;;6.03;;
18931;SDS011;9598;50.954;3.112;2024-02-15T18:59:31;5.93;;;5.43;;
18931;SDS011;9598;50.954;3.112;2024-02-15T19:04:35;6.78;;;5.90;;
18931;SDS011;9598;50.954;3.112;2024-02-15T19:09:39;6.97;;;5.32;;
18931;SDS011;9598;50.954;3.112;2024-02-15T19:14:43;6.55;;;5.93;;
18931;SDS011;9598;50.954;3.112;2024-02-15T19:19:45;5.72;;;5.13;;
18931;SDS011;9598;50.954;3.112;2024-02-15T19:24:47;6.22;;;5.30;;
18931;SDS011;9598;50.954;3.112;2024-02-15T19:29:52;5.95;;;5.20;;
18931;SDS011;9598;50.954;3.112;2024-02-15T19:34:54;6.55;;;5.70;;
18931;SDS011;9598;50.954;3.112;2024-02-15T19:39:56;6.55;;;5.90;;
18931;SDS011;9598;50.954;3.112;2024-02-15T19:45:00;5.72;;;5.25;;
18931;SDS011;9598;50.954;3.112;2024-02-15T19:50:02;6.05;;;5.45;;
18931;SDS011;9598;50.954;3.112;2024-02-15T19:55:06;6.13;;;5.63;;
18931;SDS011;9598;50.954;3.112;2024-02-15T20:00:12;6.47;;;5.38;;
18931;SDS011;9598;50.954;3.112;2024-02-15T20:05:15;6.72;;;5.70;;
18931;SDS011;9598;50.954;3.112;2024-02-15T20:10:17;8.35;;;7.40;;
18931;SDS011;9598;50.954;3.112;2024-02-15T20:15:21;10.02;;;7.65;;
18931;SDS011;9598;50.954;3.112;2024-02-15T20:20:24;6.85;;;5.90;;
18931;SDS011;9598;50.954;3.112;2024-02-15T20:25:26;9.45;;;6.78;;
18931;SDS011;9598;50.954;3.112;2024-02-15T20:30:30;7.05;;;5.85;;
18931;SDS011;9598;50.954;3.112;2024-02-15T20:35:33;7.30;;;6.47;;
18931;SDS011;9598;50.954;3.112;2024-02-15T20:40:35;7.75;;;6.82;;
18931;SDS011;9598;50.954;3.112;2024-02-15T20:45:39;6.00;;;5.40;;
18931;SDS011;9598;50.954;3.112;2024-02-15T20:50:42;6.63;;;5.93;;
18931;SDS011;9598;50.954;3.112;2024-02-15T20:55:44;7.85;;;5.97;;
18931;SDS011;9598;50.954;3.112;2024-02-15T21:00:48;7.32;;;5.80;;
18931;SDS011;9598;50.954;3.112;2024-02-15T21:05:50;7.07;;;6.22;;
18931;SDS011;9598;50.954;3.112;2024-02-15T21:10:53;6.53;;;5.93;;
18931;SDS011;9598;50.954;3.112;2024-02-15T21:16:02;7.88;;;6.20;;
18931;SDS011;9598;50.954;3.112;2024-02-15T21:21:08;7.60;;;6.13;;
18931;SDS011;9598;50.954;3.112;2024-02-15T21:26:10;6.25;;;5.65;;
18931;SDS011;9598;50.954;3.112;2024-02-15T21:31:14;7.25;;;6.20;;
18931;SDS011;9598;50.954;3.112;2024-02-15T21:36:16;7.40;;;5.07;;
18931;SDS011;9598;50.954;3.112;2024-02-15T21:41:19;6.13;;;5.50;;
18931;SDS011;9598;50.954;3.112;2024-02-15T21:46:23;6.95;;;6.10;;
18931;SDS011;9598;50.954;3.112;2024-02-15T21:51:26;6.18;;;5.43;;
18931;SDS011;9598;50.954;3.112;2024-02-15T21:56:28;6.30;;;5.70;;
18931;SDS011;9598;50.954;3.112;2024-02-15T22:01:32;6.75;;;5.85;;
18931;SDS011;9598;50.954;3.112;2024-02-15T22:06:38;5.82;;;5.22;;
18931;SDS011;9598;50.954;3.112;2024-02-15T22:11:46;7.13;;;5.50;;
18931;SDS011;9598;50.954;3.112;2024-02-15T22:16:50;5.93;;;5.38;;
18931;SDS011;9598;50.954;3.112;2024-02-15T22:21:52;5.55;;;4.93;;
18931;SDS011;9598;50.954;3.112;2024-02-15T22:26:54;5.97;;;5.38;;
18931;SDS011;9598;50.954;3.112;2024-02-15T22:32:00;7.60;;;5.75;;
18931;SDS011;9598;50.954;3.112;2024-02-15T22:37:02;6.45;;;5.85;;
18931;SDS011;9598;50.954;3.112;2024-02-15T22:42:05;6.97;;;5.75;;
18931;SDS011;9598;50.954;3.112;2024-02-15T22:47:09;7.07;;;5.07;;
18931;SDS011;9598;50.954;3.112;2024-02-15T22:52:11;6.68;;;5.40;;
18931;SDS011;9598;50.954;3.112;2024-02-15T22:57:14;5.90;;;4.88;;
18931;SDS011;9598;50.954;3.112;2024-02-15T23:02:18;5.80;;;5.22;;
18931;SDS011;9598;50.954;3.112;2024-02-15T23:07:22;5.95;;;5.45;;
18931;SDS011;9598;50.954;3.112;2024-02-15T23:12:25;5.85;;;5.35;;
18931;SDS011;9598;50.954;3.112;2024-02-15T23:17:28;5.80;;;5.30;;
18931;SDS011;9598;50.954;3.112;2024-02-15T23:22:31;6.38;;;5.78;;
18931;SDS011;9598;50.954;3.112;2024-02-15T23:27:33;6.10;;;5.32;;
18931;SDS011;9598;50.954;3.112;2024-02-15T23:32:37;6.32;;;5.30;;
18931;SDS011;9598;50.954;3.112;2024-02-15T23:37:39;5.50;;;5.00;;
18931;SDS011;9598;50.954;3.112;2024-02-15T23:42:59;7.88;;;5.60;;
18931;SDS011;9598;50.954;3.112;2024-02-15T23:48:03;5.60;;;5.05;;
18931;SDS011;9598;50.954;3.112;2024-02-15T23:53:06;6.30;;;5.18;;
18931;SDS011;9598;50.954;3.112;2024-02-15T23:58:09;5.43;;;5.00;;
